sensor_id;sensor_type;location;lat;lon;timestamp;P1;durP1;ratioP1;P2;durP2;ratioP2
66129;SDS011;52930;51.464;11.764;2023-06-14T00:00:12;4.87;;;2.50;;
66129;SDS011;52930;51.464;11.764;2023-06-14T00:02:41;5.68;;;2.10;;
66129;SDS011;52930;51.464;11.764;2023-06-14T00:05:06;5.77;;;2.40;;
66129;SDS011;52930;51.464;11.764;2023-06-14T00:07:39;6.28;;;2.63;;
66129;SDS011;52930;51.464;11.764;2023-06-14T00:10:08;5.87;;;2.10;;
66129;SDS011;52930;51.464;11.764;2023-06-14T00:12:33;6.18;;;2.20;;
66129;SDS011;52930;51.464;11.764;2023-06-14T00:14:59;9.87;;;2.53;;
66129;SDS011;52930;51.464;11.764;2023-06-14T00:17:26;4.57;;;2.10;;
66129;SDS011;52930;51.464;11.764;2023-06-14T00:19:55;4.43;;;2.22;;
66129;SDS011;52930;51.464;11.764;2023-06-14T00:22:21;5.35;;;1.98;;
66129;SDS011;52930;51.464;11.764;2023-06-14T00:24:49;4.70;;;2.08;;
66129;SDS011;52930;51.464;11.764;2023-06-14T00:27:15;4.20;;;1.90;;
66129;SDS011;52930;51.464;11.764;2023-06-14T00:29:40;5.27;;;2.57;;
66129;SDS011;52930;51.464;11.764;2023-06-14T00:32:06;4.70;;;2.05;;
66129;SDS011;52930;51.464;11.764;2023-06-14T00:34:32;6.17;;;2.27;;
66129;SDS011;52930;51.464;11.764;2023-06-14T00:36:57;5.05;;;2.30;;
66129;SDS011;52930;51.464;11.764;2023-06-14T00:39:22;4.90;;;2.20;;
66129;SDS011;52930;51.464;11.764;2023-06-14T00:41:48;4.70;;;1.80;;
66129;SDS011;52930;51.464;11.764;2023-06-14T00:44:14;4.80;;;2.20;;
66129;SDS011;52930;51.464;11.764;2023-06-14T00:46:40;5.00;;;2.17;;
66129;SDS011;52930;51.464;11.764;2023-06-14T00:49:06;4.70;;;2.10;;
66129;SDS011;52930;51.464;11.764;2023-06-14T00:51:31;5.73;;;2.57;;
66129;SDS011;52930;51.464;11.764;2023-06-14T00:53:57;4.87;;;2.33;;
66129;SDS011;52930;51.464;11.764;2023-06-14T00:56:22;4.93;;;2.67;;
66129;SDS011;52930;51.464;11.764;2023-06-14T00:58:48;5.20;;;2.33;;
66129;SDS011;52930;51.464;11.764;2023-06-14T01:01:14;5.47;;;2.27;;
66129;SDS011;52930;51.464;11.764;2023-06-14T01:03:40;5.15;;;2.47;;
66129;SDS011;52930;51.464;11.764;2023-06-14T01:06:15;4.80;;;2.40;;
66129;SDS011;52930;51.464;11.764;2023-06-14T01:08:56;4.90;;;2.42;;
66129;SDS011;52930;51.464;11.764;2023-06-14T01:11:31;5.50;;;2.65;;
66129;SDS011;52930;51.464;11.764;2023-06-14T01:13:58;5.40;;;2.10;;
66129;SDS011;52930;51.464;11.764;2023-06-14T01:16:25;5.07;;;2.28;;
66129;SDS011;52930;51.464;11.764;2023-06-14T01:18:51;7.22;;;3.15;;
66129;SDS011;52930;51.464;11.764;2023-06-14T01:21:20;5.25;;;2.60;;
66129;SDS011;52930;51.464;11.764;2023-06-14T01:23:47;5.07;;;2.35;;
66129;SDS011;52930;51.464;11.764;2023-06-14T01:26:17;6.85;;;2.95;;
66129;SDS011;52930;51.464;11.764;2023-06-14T01:28:43;5.78;;;2.90;;
66129;SDS011;52930;51.464;11.764;2023-06-14T01:31:15;5.70;;;2.78;;
66129;SDS011;52930;51.464;11.764;2023-06-14T01:33:42;5.53;;;2.60;;
66129;SDS011;52930;51.464;11.764;2023-06-14T01:36:08;5.00;;;2.63;;
66129;SDS011;52930;51.464;11.764;2023-06-14T01:38:34;10.85;;;2.78;;
66129;SDS011;52930;51.464;11.764;2023-06-14T01:40:59;5.47;;;2.30;;
66129;SDS011;52930;51.464;11.764;2023-06-14T01:43:26;6.65;;;2.75;;
66129;SDS011;52930;51.464;11.764;2023-06-14T01:45:53;5.53;;;2.80;;
66129;SDS011;52930;51.464;11.764;2023-06-14T01:48:19;7.10;;;2.70;;
66129;SDS011;52930;51.464;11.764;2023-06-14T01:50:45;5.93;;;2.60;;
66129;SDS011;52930;51.464;11.764;2023-06-14T01:53:10;6.27;;;2.20;;
66129;SDS011;52930;51.464;11.764;2023-06-14T01:55:36;6.17;;;2.40;;
66129;SDS011;52930;51.464;11.764;2023-06-14T01:58:09;6.00;;;2.58;;
66129;SDS011;52930;51.464;11.764;2023-06-14T02:00:35;6.68;;;2.72;;
66129;SDS011;52930;51.464;11.764;2023-06-14T02:03:00;5.60;;;2.57;;
66129;SDS011;52930;51.464;11.764;2023-06-14T02:05:27;5.20;;;2.80;;
66129;SDS011;52930;51.464;11.764;2023-06-14T02:07:52;5.67;;;2.70;;
66129;SDS011;52930;51.464;11.764;2023-06-14T02:10:18;5.28;;;2.38;;
66129;SDS011;52930;51.464;11.764;2023-06-14T02:12:44;7.63;;;3.00;;
66129;SDS011;52930;51.464;11.764;2023-06-14T02:15:09;7.47;;;2.80;;
66129;SDS011;52930;51.464;11.764;2023-06-14T02:17:45;6.00;;;2.72;;
66129;SDS011;52930;51.464;11.764;2023-06-14T02:20:17;5.07;;;2.63;;
66129;SDS011;52930;51.464;11.764;2023-06-14T02:22:42;7.47;;;2.72;;
66129;SDS011;52930;51.464;11.764;2023-06-14T02:25:08;5.40;;;2.67;;
66129;SDS011;52930;51.464;11.764;2023-06-14T02:27:33;5.63;;;2.80;;
66129;SDS011;52930;51.464;11.764;2023-06-14T02:29:59;7.13;;;3.08;;
66129;SDS011;52930;51.464;11.764;2023-06-14T02:32:25;5.10;;;2.75;;
66129;SDS011;52930;51.464;11.764;2023-06-14T02:34:52;5.50;;;2.88;;
66129;SDS011;52930;51.464;11.764;2023-06-14T02:37:18;5.37;;;2.83;;
66129;SDS011;52930;51.464;11.764;2023-06-14T02:39:43;5.70;;;2.88;;
66129;SDS011;52930;51.464;11.764;2023-06-14T02:42:09;5.10;;;2.87;;
66129;SDS011;52930;51.464;11.764;2023-06-14T02:44:35;5.45;;;3.00;;
66129;SDS011;52930;51.464;11.764;2023-06-14T02:47:00;7.17;;;2.70;;
66129;SDS011;52930;51.464;11.764;2023-06-14T02:49:26;7.23;;;2.70;;
66129;SDS011;52930;51.464;11.764;2023-06-14T02:51:51;7.70;;;2.67;;
66129;SDS011;52930;51.464;11.764;2023-06-14T02:54:16;5.80;;;2.80;;
66129;SDS011;52930;51.464;11.764;2023-06-14T02:56:42;5.82;;;2.60;;
66129;SDS011;52930;51.464;11.764;2023-06-14T02:59:07;7.10;;;2.70;;
66129;SDS011;52930;51.464;11.764;2023-06-14T03:01:34;6.03;;;2.97;;
66129;SDS011;52930;51.464;11.764;2023-06-14T03:04:02;8.45;;;3.20;;
66129;SDS011;52930;51.464;11.764;2023-06-14T03:06:30;5.63;;;2.60;;
66129;SDS011;52930;51.464;11.764;2023-06-14T03:08:59;6.47;;;2.63;;
66129;SDS011;52930;51.464;11.764;2023-06-14T03:11:26;5.55;;;2.63;;
66129;SDS011;52930;51.464;11.764;2023-06-14T03:13:52;7.80;;;2.75;;
66129;SDS011;52930;51.464;11.764;2023-06-14T03:16:17;5.70;;;2.67;;
66129;SDS011;52930;51.464;11.764;2023-06-14T03:18:46;4.72;;;2.67;;
66129;SDS011;52930;51.464;11.764;2023-06-14T03:21:12;6.90;;;2.97;;
66129;SDS011;52930;51.464;11.764;2023-06-14T03:23:37;6.17;;;2.57;;
66129;SDS011;52930;51.464;11.764;2023-06-14T03:26:02;6.30;;;2.95;;
66129;SDS011;52930;51.464;11.764;2023-06-14T03:28:28;7.03;;;3.03;;
66129;SDS011;52930;51.464;11.764;2023-06-14T03:30:53;5.43;;;2.83;;
66129;SDS011;52930;51.464;11.764;2023-06-14T03:33:18;6.17;;;3.03;;
66129;SDS011;52930;51.464;11.764;2023-06-14T03:35:44;6.10;;;3.03;;
66129;SDS011;52930;51.464;11.764;2023-06-14T03:38:09;7.57;;;2.83;;
66129;SDS011;52930;51.464;11.764;2023-06-14T03:40:35;7.03;;;3.15;;
66129;SDS011;52930;51.464;11.764;2023-06-14T03:43:01;6.35;;;3.20;;
66129;SDS011;52930;51.464;11.764;2023-06-14T03:45:26;5.95;;;3.22;;
66129;SDS011;52930;51.464;11.764;2023-06-14T03:47:52;7.27;;;3.20;;
66129;SDS011;52930;51.464;11.764;2023-06-14T03:50:17;5.90;;;3.40;;
66129;SDS011;52930;51.464;11.764;2023-06-14T03:52:43;5.60;;;2.67;;
66129;SDS011;52930;51.464;11.764;2023-06-14T03:55:09;5.53;;;2.70;;
66129;SDS011;52930;51.464;11.764;2023-06-14T03:57:35;5.85;;;3.05;;
66129;SDS011;52930;51.464;11.764;2023-06-14T04:00:01;6.80;;;2.67;;
66129;SDS011;52930;51.464;11.764;2023-06-14T04:02:26;6.93;;;3.23;;
66129;SDS011;52930;51.464;11.764;2023-06-14T04:04:53;6.78;;;3.60;;
66129;SDS011;52930;51.464;11.764;2023-06-14T04:07:19;7.75;;;3.00;;
66129;SDS011;52930;51.464;11.764;2023-06-14T04:09:45;5.50;;;2.73;;
66129;SDS011;52930;51.464;11.764;2023-06-14T04:12:11;5.22;;;2.80;;
66129;SDS011;52930;51.464;11.764;2023-06-14T04:14:36;5.33;;;2.80;;
66129;SDS011;52930;51.464;11.764;2023-06-14T04:17:02;8.20;;;2.95;;
66129;SDS011;52930;51.464;11.764;2023-06-14T04:19:28;5.50;;;2.60;;
66129;SDS011;52930;51.464;11.764;2023-06-14T04:21:53;5.83;;;2.60;;
66129;SDS011;52930;51.464;11.764;2023-06-14T04:24:19;5.13;;;2.63;;
66129;SDS011;52930;51.464;11.764;2023-06-14T04:26:44;6.15;;;2.95;;
66129;SDS011;52930;51.464;11.764;2023-06-14T04:29:10;7.57;;;2.40;;
66129;SDS011;52930;51.464;11.764;2023-06-14T04:31:39;5.30;;;2.70;;
66129;SDS011;52930;51.464;11.764;2023-06-14T04:34:05;5.60;;;2.90;;
66129;SDS011;52930;51.464;11.764;2023-06-14T04:36:31;5.80;;;3.10;;
66129;SDS011;52930;51.464;11.764;2023-06-14T04:38:59;5.57;;;2.90;;
66129;SDS011;52930;51.464;11.764;2023-06-14T04:41:25;6.43;;;2.90;;
66129;SDS011;52930;51.464;11.764;2023-06-14T04:43:55;5.60;;;2.60;;
66129;SDS011;52930;51.464;11.764;2023-06-14T04:46:22;10.27;;;2.80;;
66129;SDS011;52930;51.464;11.764;2023-06-14T04:48:47;5.15;;;2.80;;
66129;SDS011;52930;51.464;11.764;2023-06-14T04:51:12;5.60;;;2.60;;
66129;SDS011;52930;51.464;11.764;2023-06-14T04:53:38;6.53;;;2.90;;
66129;SDS011;52930;51.464;11.764;2023-06-14T04:56:03;5.80;;;2.63;;
66129;SDS011;52930;51.464;11.764;2023-06-14T04:58:29;7.07;;;2.90;;
66129;SDS011;52930;51.464;11.764;2023-06-14T05:00:55;6.63;;;2.80;;
66129;SDS011;52930;51.464;11.764;2023-06-14T05:03:21;5.63;;;2.78;;
66129;SDS011;52930;51.464;11.764;2023-06-14T05:05:47;5.80;;;2.80;;
66129;SDS011;52930;51.464;11.764;2023-06-14T05:08:12;5.63;;;3.40;;
66129;SDS011;52930;51.464;11.764;2023-06-14T05:10:37;7.23;;;3.40;;
66129;SDS011;52930;51.464;11.764;2023-06-14T05:13:03;6.32;;;3.60;;
66129;SDS011;52930;51.464;11.764;2023-06-14T05:15:28;8.73;;;3.80;;
66129;SDS011;52930;51.464;11.764;2023-06-14T05:17:54;7.10;;;3.47;;
66129;SDS011;52930;51.464;11.764;2023-06-14T05:20:20;6.67;;;3.50;;
66129;SDS011;52930;51.464;11.764;2023-06-14T05:22:48;8.25;;;3.28;;
66129;SDS011;52930;51.464;11.764;2023-06-14T05:25:15;6.72;;;3.45;;
66129;SDS011;52930;51.464;11.764;2023-06-14T05:27:40;8.03;;;3.90;;
66129;SDS011;52930;51.464;11.764;2023-06-14T05:30:07;7.75;;;3.67;;
66129;SDS011;52930;51.464;11.764;2023-06-14T05:32:33;8.07;;;3.77;;
66129;SDS011;52930;51.464;11.764;2023-06-14T05:34:59;13.25;;;4.13;;
66129;SDS011;52930;51.464;11.764;2023-06-14T05:37:24;10.03;;;3.90;;
66129;SDS011;52930;51.464;11.764;2023-06-14T05:39:49;7.63;;;4.03;;
66129;SDS011;52930;51.464;11.764;2023-06-14T05:42:15;7.07;;;3.70;;
66129;SDS011;52930;51.464;11.764;2023-06-14T05:44:40;7.07;;;3.30;;
66129;SDS011;52930;51.464;11.764;2023-06-14T05:47:05;8.03;;;4.00;;
66129;SDS011;52930;51.464;11.764;2023-06-14T05:49:31;8.30;;;4.30;;
66129;SDS011;52930;51.464;11.764;2023-06-14T05:51:56;6.77;;;3.93;;
66129;SDS011;52930;51.464;11.764;2023-06-14T05:54:21;6.43;;;4.00;;
66129;SDS011;52930;51.464;11.764;2023-06-14T05:56:47;9.93;;;4.10;;
66129;SDS011;52930;51.464;11.764;2023-06-14T05:59:12;13.57;;;3.90;;
66129;SDS011;52930;51.464;11.764;2023-06-14T06:01:37;11.97;;;3.80;;
66129;SDS011;52930;51.464;11.764;2023-06-14T06:04:05;8.03;;;3.63;;
66129;SDS011;52930;51.464;11.764;2023-06-14T06:06:30;9.48;;;3.78;;
66129;SDS011;52930;51.464;11.764;2023-06-14T06:08:55;8.50;;;4.07;;
66129;SDS011;52930;51.464;11.764;2023-06-14T06:11:21;7.80;;;4.30;;
66129;SDS011;52930;51.464;11.764;2023-06-14T06:13:46;7.30;;;3.67;;
66129;SDS011;52930;51.464;11.764;2023-06-14T06:16:12;9.13;;;4.35;;
66129;SDS011;52930;51.464;11.764;2023-06-14T06:18:37;10.50;;;4.97;;
66129;SDS011;52930;51.464;11.764;2023-06-14T06:21:03;10.47;;;4.50;;
66129;SDS011;52930;51.464;11.764;2023-06-14T06:23:29;7.43;;;3.85;;
66129;SDS011;52930;51.464;11.764;2023-06-14T06:25:54;7.87;;;4.20;;
66129;SDS011;52930;51.464;11.764;2023-06-14T06:28:20;8.32;;;3.95;;
66129;SDS011;52930;51.464;11.764;2023-06-14T06:30:45;8.37;;;4.10;;
66129;SDS011;52930;51.464;11.764;2023-06-14T06:33:11;8.40;;;4.60;;
66129;SDS011;52930;51.464;11.764;2023-06-14T06:35:36;7.60;;;3.97;;
66129;SDS011;52930;51.464;11.764;2023-06-14T06:38:02;7.75;;;4.45;;
66129;SDS011;52930;51.464;11.764;2023-06-14T06:40:27;10.60;;;4.73;;
66129;SDS011;52930;51.464;11.764;2023-06-14T06:42:53;8.87;;;4.30;;
66129;SDS011;52930;51.464;11.764;2023-06-14T06:45:19;8.00;;;4.72;;
66129;SDS011;52930;51.464;11.764;2023-06-14T06:47:44;9.00;;;4.07;;
66129;SDS011;52930;51.464;11.764;2023-06-14T06:50:10;8.53;;;4.33;;
66129;SDS011;52930;51.464;11.764;2023-06-14T06:52:35;7.73;;;4.23;;
66129;SDS011;52930;51.464;11.764;2023-06-14T06:55:01;7.07;;;4.57;;
66129;SDS011;52930;51.464;11.764;2023-06-14T06:57:27;8.25;;;4.70;;
66129;SDS011;52930;51.464;11.764;2023-06-14T06:59:53;8.25;;;4.32;;
66129;SDS011;52930;51.464;11.764;2023-06-14T07:02:19;7.70;;;4.10;;
66129;SDS011;52930;51.464;11.764;2023-06-14T07:04:44;6.90;;;4.03;;
66129;SDS011;52930;51.464;11.764;2023-06-14T07:07:10;8.67;;;4.40;;
66129;SDS011;52930;51.464;11.764;2023-06-14T07:09:35;7.25;;;3.80;;
66129;SDS011;52930;51.464;11.764;2023-06-14T07:12:00;9.03;;;3.90;;
66129;SDS011;52930;51.464;11.764;2023-06-14T07:14:26;8.53;;;3.93;;
66129;SDS011;52930;51.464;11.764;2023-06-14T07:16:51;8.47;;;3.80;;
66129;SDS011;52930;51.464;11.764;2023-06-14T07:19:16;7.43;;;4.30;;
66129;SDS011;52930;51.464;11.764;2023-06-14T07:21:42;7.87;;;4.73;;
66129;SDS011;52930;51.464;11.764;2023-06-14T07:24:07;8.80;;;4.18;;
66129;SDS011;52930;51.464;11.764;2023-06-14T07:26:33;7.43;;;3.97;;
66129;SDS011;52930;51.464;11.764;2023-06-14T07:28:58;7.30;;;4.10;;
66129;SDS011;52930;51.464;11.764;2023-06-14T07:31:24;7.35;;;3.90;;
66129;SDS011;52930;51.464;11.764;2023-06-14T07:33:49;7.73;;;4.00;;
66129;SDS011;52930;51.464;11.764;2023-06-14T07:36:14;9.30;;;3.87;;
66129;SDS011;52930;51.464;11.764;2023-06-14T07:38:40;6.53;;;3.83;;
66129;SDS011;52930;51.464;11.764;2023-06-14T07:41:06;9.20;;;4.28;;
66129;SDS011;52930;51.464;11.764;2023-06-14T07:43:31;6.07;;;3.73;;
66129;SDS011;52930;51.464;11.764;2023-06-14T07:45:56;7.40;;;3.77;;
66129;SDS011;52930;51.464;11.764;2023-06-14T07:48:22;7.25;;;3.35;;
66129;SDS011;52930;51.464;11.764;2023-06-14T07:50:48;11.97;;;4.30;;
66129;SDS011;52930;51.464;11.764;2023-06-14T07:53:13;7.63;;;3.57;;
66129;SDS011;52930;51.464;11.764;2023-06-14T07:55:38;6.20;;;3.60;;
66129;SDS011;52930;51.464;11.764;2023-06-14T07:58:04;7.22;;;4.10;;
66129;SDS011;52930;51.464;11.764;2023-06-14T08:00:31;6.27;;;3.90;;
66129;SDS011;52930;51.464;11.764;2023-06-14T08:02:56;6.87;;;3.47;;
66129;SDS011;52930;51.464;11.764;2023-06-14T08:05:24;7.65;;;3.83;;
66129;SDS011;52930;51.464;11.764;2023-06-14T08:07:50;6.75;;;3.53;;
66129;SDS011;52930;51.464;11.764;2023-06-14T08:10:16;9.77;;;3.60;;
66129;SDS011;52930;51.464;11.764;2023-06-14T08:12:41;9.07;;;3.20;;
66129;SDS011;52930;51.464;11.764;2023-06-14T08:15:06;5.70;;;3.30;;
66129;SDS011;52930;51.464;11.764;2023-06-14T08:17:33;9.25;;;3.85;;
66129;SDS011;52930;51.464;11.764;2023-06-14T08:19:58;10.03;;;3.80;;
66129;SDS011;52930;51.464;11.764;2023-06-14T08:22:24;7.97;;;3.30;;
66129;SDS011;52930;51.464;11.764;2023-06-14T08:24:50;7.53;;;3.80;;
66129;SDS011;52930;51.464;11.764;2023-06-14T08:27:15;7.05;;;3.40;;
66129;SDS011;52930;51.464;11.764;2023-06-14T08:29:40;7.90;;;3.33;;
66129;SDS011;52930;51.464;11.764;2023-06-14T08:32:06;5.75;;;3.40;;
66129;SDS011;52930;51.464;11.764;2023-06-14T08:34:32;6.37;;;3.47;;
66129;SDS011;52930;51.464;11.764;2023-06-14T08:36:57;8.07;;;3.60;;
66129;SDS011;52930;51.464;11.764;2023-06-14T08:39:22;5.40;;;3.57;;
66129;SDS011;52930;51.464;11.764;2023-06-14T08:41:48;7.97;;;3.50;;
66129;SDS011;52930;51.464;11.764;2023-06-14T08:44:15;6.55;;;3.10;;
66129;SDS011;52930;51.464;11.764;2023-06-14T08:46:41;6.17;;;3.47;;
66129;SDS011;52930;51.464;11.764;2023-06-14T08:49:06;6.45;;;3.67;;
66129;SDS011;52930;51.464;11.764;2023-06-14T08:51:33;8.25;;;3.42;;
66129;SDS011;52930;51.464;11.764;2023-06-14T08:54:01;5.97;;;3.45;;
66129;SDS011;52930;51.464;11.764;2023-06-14T08:56:30;7.03;;;3.30;;
66129;SDS011;52930;51.464;11.764;2023-06-14T08:58:57;6.00;;;3.50;;
66129;SDS011;52930;51.464;11.764;2023-06-14T09:01:25;7.75;;;3.92;;
66129;SDS011;52930;51.464;11.764;2023-06-14T09:03:51;7.03;;;3.80;;
66129;SDS011;52930;51.464;11.764;2023-06-14T09:06:17;7.03;;;3.20;;
66129;SDS011;52930;51.464;11.764;2023-06-14T09:08:45;6.55;;;3.75;;
66129;SDS011;52930;51.464;11.764;2023-06-14T09:11:12;8.85;;;4.00;;
66129;SDS011;52930;51.464;11.764;2023-06-14T09:13:38;6.50;;;3.90;;
66129;SDS011;52930;51.464;11.764;2023-06-14T09:16:04;7.78;;;3.58;;
66129;SDS011;52930;51.464;11.764;2023-06-14T09:18:37;6.75;;;3.67;;
66129;SDS011;52930;51.464;11.764;2023-06-14T09:21:06;5.85;;;3.50;;
66129;SDS011;52930;51.464;11.764;2023-06-14T09:23:39;7.68;;;3.53;;
66129;SDS011;52930;51.464;11.764;2023-06-14T09:26:08;7.50;;;3.43;;
66129;SDS011;52930;51.464;11.764;2023-06-14T09:28:34;6.05;;;3.33;;
66129;SDS011;52930;51.464;11.764;2023-06-14T09:31:00;8.20;;;3.38;;
66129;SDS011;52930;51.464;11.764;2023-06-14T09:33:26;6.63;;;3.40;;
66129;SDS011;52930;51.464;11.764;2023-06-14T09:35:52;7.70;;;3.75;;
66129;SDS011;52930;51.464;11.764;2023-06-14T09:38:19;6.68;;;3.47;;
66129;SDS011;52930;51.464;11.764;2023-06-14T09:40:45;6.47;;;3.00;;
66129;SDS011;52930;51.464;11.764;2023-06-14T09:43:10;8.40;;;3.20;;
66129;SDS011;52930;51.464;11.764;2023-06-14T09:45:36;6.67;;;3.30;;
66129;SDS011;52930;51.464;11.764;2023-06-14T09:48:04;7.45;;;3.30;;
66129;SDS011;52930;51.464;11.764;2023-06-14T09:50:30;6.57;;;3.27;;
66129;SDS011;52930;51.464;11.764;2023-06-14T09:52:56;6.00;;;3.40;;
66129;SDS011;52930;51.464;11.764;2023-06-14T09:55:28;7.43;;;3.30;;
66129;SDS011;52930;51.464;11.764;2023-06-14T09:57:55;6.45;;;3.35;;
66129;SDS011;52930;51.464;11.764;2023-06-14T10:00:21;8.80;;;3.13;;
66129;SDS011;52930;51.464;11.764;2023-06-14T10:02:49;5.40;;;3.35;;
66129;SDS011;52930;51.464;11.764;2023-06-14T10:05:20;8.13;;;3.50;;
66129;SDS011;52930;51.464;11.764;2023-06-14T10:10:12;6.33;;;3.07;;
66129;SDS011;52930;51.464;11.764;2023-06-14T10:12:37;5.20;;;2.87;;
66129;SDS011;52930;51.464;11.764;2023-06-14T10:15:03;6.78;;;2.88;;
66129;SDS011;52930;51.464;11.764;2023-06-14T10:17:37;6.40;;;3.07;;
66129;SDS011;52930;51.464;11.764;2023-06-14T10:22:49;5.75;;;2.90;;
66129;SDS011;52930;51.464;11.764;2023-06-14T10:25:25;5.30;;;2.88;;
66129;SDS011;52930;51.464;11.764;2023-06-14T10:27:52;7.28;;;3.17;;
66129;SDS011;52930;51.464;11.764;2023-06-14T10:30:18;5.40;;;3.17;;
66129;SDS011;52930;51.464;11.764;2023-06-14T10:33:08;6.82;;;2.85;;
66129;SDS011;52930;51.464;11.764;2023-06-14T10:35:35;5.13;;;2.93;;
66129;SDS011;52930;51.464;11.764;2023-06-14T10:38:07;6.28;;;3.13;;
66129;SDS011;52930;51.464;11.764;2023-06-14T10:40:36;6.43;;;2.30;;
66129;SDS011;52930;51.464;11.764;2023-06-14T10:43:01;5.10;;;2.40;;
66129;SDS011;52930;51.464;11.764;2023-06-14T10:46:11;4.97;;;2.40;;
66129;SDS011;52930;51.464;11.764;2023-06-14T10:48:41;4.78;;;2.30;;
66129;SDS011;52930;51.464;11.764;2023-06-14T10:51:13;6.82;;;2.33;;
66129;SDS011;52930;51.464;11.764;2023-06-14T10:53:41;5.90;;;2.75;;
66129;SDS011;52930;51.464;11.764;2023-06-14T10:56:07;4.85;;;2.85;;
66129;SDS011;52930;51.464;11.764;2023-06-14T10:58:33;5.77;;;2.60;;
66129;SDS011;52930;51.464;11.764;2023-06-14T11:00:58;5.10;;;2.20;;
66129;SDS011;52930;51.464;11.764;2023-06-14T11:03:43;5.10;;;2.65;;
66129;SDS011;52930;51.464;11.764;2023-06-14T11:06:17;6.18;;;2.72;;
66129;SDS011;52930;51.464;11.764;2023-06-14T11:11:44;5.55;;;2.80;;
66129;SDS011;52930;51.464;11.764;2023-06-14T11:14:10;5.15;;;2.67;;
66129;SDS011;52930;51.464;11.764;2023-06-14T11:16:36;4.93;;;2.20;;
66129;SDS011;52930;51.464;11.764;2023-06-14T11:19:02;6.30;;;2.37;;
66129;SDS011;52930;51.464;11.764;2023-06-14T11:21:31;4.10;;;2.10;;
66129;SDS011;52930;51.464;11.764;2023-06-14T11:23:58;5.03;;;2.43;;
66129;SDS011;52930;51.464;11.764;2023-06-14T11:26:24;4.60;;;2.00;;
66129;SDS011;52930;51.464;11.764;2023-06-14T11:29:00;6.57;;;2.30;;
66129;SDS011;52930;51.464;11.764;2023-06-14T11:31:29;8.60;;;2.60;;
66129;SDS011;52930;51.464;11.764;2023-06-14T11:33:55;5.78;;;2.25;;
66129;SDS011;52930;51.464;11.764;2023-06-14T11:36:27;5.00;;;2.53;;
66129;SDS011;52930;51.464;11.764;2023-06-14T11:38:58;4.90;;;1.80;;
66129;SDS011;52930;51.464;11.764;2023-06-14T11:41:25;5.28;;;2.30;;
66129;SDS011;52930;51.464;11.764;2023-06-14T11:43:52;5.37;;;2.40;;
66129;SDS011;52930;51.464;11.764;2023-06-14T11:46:18;4.90;;;2.53;;
66129;SDS011;52930;51.464;11.764;2023-06-14T11:48:48;5.80;;;2.70;;
66129;SDS011;52930;51.464;11.764;2023-06-14T11:51:14;5.73;;;2.70;;
66129;SDS011;52930;51.464;11.764;2023-06-14T11:53:39;7.80;;;3.23;;
66129;SDS011;52930;51.464;11.764;2023-06-14T11:56:05;5.68;;;2.70;;
66129;SDS011;52930;51.464;11.764;2023-06-14T11:58:30;5.23;;;2.40;;
66129;SDS011;52930;51.464;11.764;2023-06-14T12:00:56;5.90;;;2.30;;
66129;SDS011;52930;51.464;11.764;2023-06-14T12:03:24;6.93;;;2.80;;
66129;SDS011;52930;51.464;11.764;2023-06-14T12:06:07;4.97;;;2.70;;
66129;SDS011;52930;51.464;11.764;2023-06-14T12:08:33;5.75;;;2.65;;
66129;SDS011;52930;51.464;11.764;2023-06-14T12:11:11;6.43;;;2.15;;
66129;SDS011;52930;51.464;11.764;2023-06-14T12:13:44;5.20;;;2.50;;
66129;SDS011;52930;51.464;11.764;2023-06-14T12:16:10;5.07;;;2.50;;
66129;SDS011;52930;51.464;11.764;2023-06-14T12:18:36;5.63;;;2.70;;
66129;SDS011;52930;51.464;11.764;2023-06-14T12:21:03;4.80;;;2.50;;
66129;SDS011;52930;51.464;11.764;2023-06-14T12:23:45;6.30;;;2.47;;
66129;SDS011;52930;51.464;11.764;2023-06-14T12:26:12;6.18;;;3.35;;
66129;SDS011;52930;51.464;11.764;2023-06-14T12:28:39;5.05;;;2.95;;
66129;SDS011;52930;51.464;11.764;2023-06-14T12:31:06;6.90;;;3.10;;
66129;SDS011;52930;51.464;11.764;2023-06-14T12:33:32;4.67;;;2.40;;
66129;SDS011;52930;51.464;11.764;2023-06-14T12:35:57;6.70;;;2.63;;
66129;SDS011;52930;51.464;11.764;2023-06-14T12:38:24;6.40;;;3.13;;
66129;SDS011;52930;51.464;11.764;2023-06-14T12:40:49;6.82;;;3.03;;
66129;SDS011;52930;51.464;11.764;2023-06-14T12:43:14;8.80;;;3.30;;
66129;SDS011;52930;51.464;11.764;2023-06-14T12:45:40;5.97;;;3.13;;
66129;SDS011;52930;51.464;11.764;2023-06-14T12:48:05;5.72;;;3.05;;
66129;SDS011;52930;51.464;11.764;2023-06-14T12:50:31;5.20;;;2.93;;
66129;SDS011;52930;51.464;11.764;2023-06-14T12:52:56;6.30;;;2.93;;
66129;SDS011;52930;51.464;11.764;2023-06-14T12:55:21;5.93;;;3.20;;
66129;SDS011;52930;51.464;11.764;2023-06-14T12:57:47;6.30;;;3.40;;
66129;SDS011;52930;51.464;11.764;2023-06-14T13:00:14;10.38;;;3.33;;
66129;SDS011;52930;51.464;11.764;2023-06-14T13:02:40;10.52;;;3.45;;
66129;SDS011;52930;51.464;11.764;2023-06-14T13:05:06;6.53;;;3.03;;
66129;SDS011;52930;51.464;11.764;2023-06-14T13:07:32;5.60;;;3.28;;
66129;SDS011;52930;51.464;11.764;2023-06-14T13:09:57;6.63;;;3.00;;
66129;SDS011;52930;51.464;11.764;2023-06-14T13:12:22;6.57;;;3.33;;
66129;SDS011;52930;51.464;11.764;2023-06-14T13:14:48;6.10;;;3.23;;
66129;SDS011;52930;51.464;11.764;2023-06-14T13:17:13;6.03;;;3.30;;
66129;SDS011;52930;51.464;11.764;2023-06-14T13:19:39;14.07;;;3.40;;
66129;SDS011;52930;51.464;11.764;2023-06-14T13:22:04;6.23;;;3.40;;
66129;SDS011;52930;51.464;11.764;2023-06-14T13:24:30;6.03;;;3.33;;
66129;SDS011;52930;51.464;11.764;2023-06-14T13:26:56;7.63;;;3.40;;
66129;SDS011;52930;51.464;11.764;2023-06-14T13:29:22;11.53;;;3.53;;
66129;SDS011;52930;51.464;11.764;2023-06-14T13:31:48;5.70;;;3.10;;
66129;SDS011;52930;51.464;11.764;2023-06-14T13:34:13;6.10;;;2.73;;
66129;SDS011;52930;51.464;11.764;2023-06-14T13:36:39;9.02;;;3.20;;
66129;SDS011;52930;51.464;11.764;2023-06-14T13:39:04;7.00;;;3.23;;
66129;SDS011;52930;51.464;11.764;2023-06-14T13:41:31;8.03;;;3.07;;
66129;SDS011;52930;51.464;11.764;2023-06-14T13:43:58;6.88;;;3.30;;
66129;SDS011;52930;51.464;11.764;2023-06-14T13:46:24;6.70;;;3.10;;
66129;SDS011;52930;51.464;11.764;2023-06-14T13:48:50;9.15;;;4.40;;
66129;SDS011;52930;51.464;11.764;2023-06-14T13:51:15;10.83;;;3.60;;
66129;SDS011;52930;51.464;11.764;2023-06-14T13:53:42;6.45;;;3.00;;
66129;SDS011;52930;51.464;11.764;2023-06-14T13:56:08;7.10;;;2.90;;
66129;SDS011;52930;51.464;11.764;2023-06-14T13:58:33;6.60;;;3.17;;
66129;SDS011;52930;51.464;11.764;2023-06-14T14:00:58;5.67;;;2.97;;
66129;SDS011;52930;51.464;11.764;2023-06-14T14:03:24;6.22;;;3.20;;
66129;SDS011;52930;51.464;11.764;2023-06-14T14:05:50;7.17;;;3.37;;
66129;SDS011;52930;51.464;11.764;2023-06-14T14:08:15;6.70;;;3.57;;
66129;SDS011;52930;51.464;11.764;2023-06-14T14:10:40;5.53;;;2.93;;
66129;SDS011;52930;51.464;11.764;2023-06-14T14:13:06;6.22;;;3.40;;
66129;SDS011;52930;51.464;11.764;2023-06-14T14:15:31;6.07;;;3.10;;
66129;SDS011;52930;51.464;11.764;2023-06-14T14:17:59;6.93;;;3.08;;
66129;SDS011;52930;51.464;11.764;2023-06-14T14:20:24;7.57;;;3.00;;
66129;SDS011;52930;51.464;11.764;2023-06-14T14:22:50;8.23;;;3.53;;
66129;SDS011;52930;51.464;11.764;2023-06-14T14:25:15;6.87;;;3.30;;
66129;SDS011;52930;51.464;11.764;2023-06-14T14:27:40;6.87;;;3.30;;
66129;SDS011;52930;51.464;11.764;2023-06-14T14:30:06;8.68;;;3.35;;
66129;SDS011;52930;51.464;11.764;2023-06-14T14:32:32;10.87;;;3.27;;
66129;SDS011;52930;51.464;11.764;2023-06-14T14:34:58;5.17;;;3.27;;
66129;SDS011;52930;51.464;11.764;2023-06-14T14:37:23;6.75;;;3.17;;